createdAt,value
2019-06-26T00:00:25.793Z,93.90
2019-06-26T00:02:56.042Z,94.10
2019-06-26T00:05:26.365Z,94.00
2019-06-26T00:07:56.680Z,94.20
2019-06-26T00:10:26.883Z,94.20
2019-06-26T00:12:57.237Z,94.10
2019-06-26T00:15:27.654Z,94.30
2019-06-26T00:17:57.849Z,94.50
2019-06-26T00:20:28.128Z,94.40
2019-06-26T00:22:58.151Z,94.40
2019-06-26T00:25:28.281Z,94.50
2019-06-26T00:27:58.383Z,94.60
2019-06-26T00:30:30.155Z,94.60
2019-06-26T00:33:00.262Z,94.60
2019-06-26T00:35:30.405Z,94.60
2019-06-26T00:38:00.796Z,94.90
2019-06-26T00:40:31.220Z,95.20
2019-06-26T00:43:01.463Z,94.90
2019-06-26T00:45:31.648Z,95.00
2019-06-26T00:48:01.720Z,95.10
2019-06-26T00:50:32.094Z,95.20
2019-06-26T00:53:02.223Z,95.20
2019-06-26T00:55:32.519Z,95.30
2019-06-26T00:58:02.891Z,95.30
2019-06-26T01:00:38.282Z,95.50
2019-06-26T01:03:08.396Z,95.60
2019-06-26T01:05:38.746Z,95.60
2019-06-26T01:08:08.903Z,95.60
2019-06-26T01:10:39.329Z,95.90
2019-06-26T01:13:09.577Z,96.00
2019-06-26T01:15:39.753Z,95.90
2019-06-26T01:18:09.938Z,96.00
2019-06-26T01:20:40.031Z,96.10
2019-06-26T01:23:10.247Z,96.20
2019-06-26T01:25:40.537Z,96.20
2019-06-26T01:28:10.557Z,96.30
2019-06-26T01:30:40.580Z,96.30
2019-06-26T01:33:10.669Z,96.50
2019-06-26T01:35:40.781Z,96.40
2019-06-26T01:38:11.011Z,96.50
2019-06-26T01:40:41.420Z,96.60
2019-06-26T01:43:11.515Z,96.60
2019-06-26T01:45:41.583Z,96.70
2019-06-26T01:48:11.796Z,96.70
2019-06-26T01:50:43.120Z,96.80
2019-06-26T01:53:13.164Z,96.90
2019-06-26T01:55:43.071Z,97.00
2019-06-26T01:58:13.359Z,96.90
2019-06-26T02:00:44.545Z,97.10
2019-06-26T02:03:14.726Z,97.10
2019-06-26T02:05:44.819Z,97.10
2019-06-26T02:08:14.915Z,97.10
2019-06-26T02:10:45.312Z,97.10
2019-06-26T02:13:15.578Z,97.10
2019-06-26T02:15:45.592Z,97.30
2019-06-26T02:18:34.736Z,97.20
2019-06-26T02:21:05.094Z,97.20
2019-06-26T02:23:35.264Z,97.20
2019-06-26T02:26:05.521Z,97.30
2019-06-26T02:28:35.622Z,97.40
2019-06-26T02:31:05.694Z,97.40
2019-06-26T02:33:35.889Z,97.60
2019-06-26T02:36:06.237Z,97.50
2019-06-26T02:38:36.421Z,97.60
2019-06-26T02:41:06.889Z,97.60
2019-06-26T02:43:36.974Z,97.70
2019-06-26T02:46:07.013Z,97.70
2019-06-26T02:48:37.313Z,97.70
2019-06-26T02:51:07.607Z,97.70
2019-06-26T02:53:37.724Z,97.70
2019-06-26T02:56:07.851Z,97.70
2019-06-26T02:58:38.008Z,97.90
2019-06-26T03:01:08.171Z,97.80
2019-06-26T03:03:38.409Z,98.00
2019-06-26T03:06:08.575Z,98.00
2019-06-26T03:08:38.593Z,98.00
2019-06-26T03:11:08.851Z,98.10
2019-06-26T03:13:39.113Z,98.10
2019-06-26T03:16:10.488Z,98.20
2019-06-26T03:18:40.717Z,98.40
2019-06-26T03:21:10.813Z,98.40
2019-06-26T03:23:41.094Z,98.40
2019-06-26T03:26:11.297Z,98.50
2019-06-26T03:28:41.471Z,98.50
2019-06-26T03:31:11.634Z,98.50
2019-06-26T03:33:41.799Z,98.40
2019-06-26T03:36:11.946Z,98.40
2019-06-26T03:38:42.019Z,98.30
2019-06-26T03:41:12.228Z,98.40
2019-06-26T03:43:42.440Z,98.40
2019-06-26T03:46:12.489Z,98.50
2019-06-26T03:48:42.630Z,98.40
2019-06-26T03:51:14.030Z,98.50
2019-06-26T03:53:44.418Z,98.60
2019-06-26T03:56:14.498Z,98.80
2019-06-26T03:58:44.495Z,98.70
2019-06-26T04:01:14.391Z,98.60
2019-06-26T04:03:44.430Z,98.50
2019-06-26T04:06:14.571Z,98.60
2019-06-26T04:08:44.634Z,98.70
2019-06-26T04:11:14.687Z,98.70
2019-06-26T04:13:45.156Z,98.80
2019-06-26T04:16:15.652Z,98.90
2019-06-26T04:18:45.790Z,98.80
2019-06-26T04:21:15.926Z,98.80
2019-06-26T04:23:46.000Z,98.70
2019-06-26T04:26:16.247Z,98.70
2019-06-26T04:28:46.584Z,98.50
2019-06-26T04:31:16.605Z,98.40
2019-06-26T04:33:46.870Z,98.30
2019-06-26T04:36:16.984Z,98.50
2019-06-26T04:38:47.171Z,98.30
2019-06-26T04:41:17.529Z,98.40
2019-06-26T04:43:47.715Z,98.50
2019-06-26T04:46:18.158Z,98.10
2019-06-26T04:48:48.257Z,98.40
2019-06-26T04:51:18.337Z,98.30
2019-06-26T04:53:48.292Z,98.00
2019-06-26T04:56:18.380Z,98.00
2019-06-26T04:58:48.422Z,98.00
2019-06-26T05:01:18.478Z,98.00
2019-06-26T05:03:48.538Z,97.90
2019-06-26T05:06:18.599Z,97.80
2019-06-26T05:08:50.246Z,97.90
2019-06-26T05:11:20.423Z,97.80
2019-06-26T05:13:50.681Z,98.20
2019-06-26T05:16:20.845Z,97.90
2019-06-26T05:18:50.921Z,98.10
2019-06-26T05:21:21.003Z,97.90
2019-06-26T05:23:51.695Z,97.80
2019-06-26T05:26:22.248Z,97.90
2019-06-26T05:28:52.431Z,98.00
2019-06-26T05:31:22.688Z,97.90
2019-06-26T05:33:53.091Z,97.70
2019-06-26T05:36:23.287Z,97.70
2019-06-26T05:38:53.349Z,97.70
2019-06-26T05:41:23.427Z,97.60
2019-06-26T05:43:53.563Z,97.50
2019-06-26T05:46:31.216Z,97.50
2019-06-26T05:48:55.927Z,97.60
2019-06-26T05:51:37.913Z,97.60
2019-06-26T05:54:08.165Z,97.60
2019-06-26T05:56:38.262Z,97.70
2019-06-26T05:59:08.469Z,97.70
2019-06-26T06:01:38.629Z,97.40
2019-06-26T06:04:08.684Z,97.50
2019-06-26T06:06:41.960Z,97.40
2019-06-26T06:09:10.649Z,97.50
2019-06-26T06:11:40.821Z,97.10
2019-06-26T06:14:10.850Z,97.30
2019-06-26T06:16:47.261Z,97.30
2019-06-26T06:19:12.851Z,97.10
2019-06-26T06:21:42.816Z,97.10
2019-06-26T06:24:12.910Z,97.60
2019-06-26T06:26:43.076Z,96.80
2019-06-26T06:29:13.199Z,96.50
2019-06-26T06:31:43.197Z,96.50
2019-06-26T06:34:13.339Z,96.20
2019-06-26T06:36:43.620Z,96.30
2019-06-26T06:39:13.847Z,96.50
2019-06-26T06:41:46.234Z,96.10
2019-06-26T06:44:16.406Z,95.80
2019-06-26T06:47:02.458Z,96.30
2019-06-26T06:49:18.516Z,96.10
2019-06-26T06:51:48.583Z,95.50
2019-06-26T06:54:18.938Z,95.40
2019-06-26T06:56:49.440Z,95.50
2019-06-26T06:59:19.642Z,95.50
2019-06-26T07:01:49.784Z,95.70
2019-06-26T07:04:19.781Z,95.30
2019-06-26T07:06:50.005Z,95.30
2019-06-26T07:09:20.655Z,95.10
2019-06-26T07:11:50.860Z,95.30
2019-06-26T07:14:21.120Z,94.90
2019-06-26T07:16:51.171Z,95.10
2019-06-26T07:19:33.635Z,94.10
2019-06-26T07:22:07.474Z,93.60
2019-06-26T07:24:37.957Z,93.30
2019-06-26T07:27:08.110Z,93.60
2019-06-26T07:29:38.278Z,93.50
2019-06-26T07:32:08.441Z,93.30
2019-06-26T07:34:38.504Z,91.80
2019-06-26T07:37:08.874Z,91.90
2019-06-26T07:39:38.906Z,92.10
2019-06-26T07:42:09.118Z,92.30
2019-06-26T07:44:39.089Z,92.00
2019-06-26T07:47:22.453Z,91.80
2019-06-26T07:49:40.857Z,92.00
2019-06-26T07:52:10.860Z,91.90
2019-06-26T07:54:40.943Z,92.30
2019-06-26T07:57:11.238Z,92.00
2019-06-26T07:59:41.483Z,91.30
2019-06-26T08:02:11.543Z,90.80
2019-06-26T08:04:41.904Z,91.00
2019-06-26T08:07:11.941Z,91.10
2019-06-26T08:09:42.143Z,89.50
2019-06-26T08:12:12.332Z,90.10
2019-06-26T08:14:42.503Z,89.70
2019-06-26T08:17:12.770Z,89.30
2019-06-26T08:19:43.097Z,89.30
2019-06-26T08:22:13.238Z,89.00
2019-06-26T08:24:43.360Z,88.90
2019-06-26T08:27:14.713Z,88.30
2019-06-26T08:29:44.961Z,85.10
2019-06-26T08:32:15.170Z,84.80
2019-06-26T08:34:45.241Z,83.30
2019-06-26T08:37:15.405Z,84.00
2019-06-26T08:39:45.508Z,81.90
2019-06-26T08:42:15.663Z,83.40
2019-06-26T08:44:45.694Z,82.40
2019-06-26T08:47:16.781Z,81.30
2019-06-26T08:49:46.875Z,81.10
2019-06-26T08:52:17.527Z,80.00
2019-06-26T08:54:47.743Z,80.70
2019-06-26T08:57:18.119Z,80.40
2019-06-26T08:59:48.260Z,81.80
2019-06-26T09:02:18.445Z,79.80
2019-06-26T09:04:50.268Z,78.70
2019-06-26T09:07:20.483Z,78.70
2019-06-26T09:09:50.762Z,79.10
2019-06-26T09:12:20.938Z,79.00
2019-06-26T09:14:51.199Z,78.20
2019-06-26T09:17:21.390Z,78.80
2019-06-26T09:19:51.502Z,79.10
2019-06-26T09:22:21.550Z,79.30
2019-06-26T09:24:51.604Z,78.10
2019-06-26T09:27:21.858Z,78.10
2019-06-26T09:29:52.095Z,79.00
2019-06-26T09:32:22.423Z,77.80
2019-06-26T09:34:52.560Z,77.50
2019-06-26T09:37:22.516Z,78.00
2019-06-26T09:39:52.989Z,75.90
2019-06-26T09:42:24.735Z,77.30
2019-06-26T09:44:54.887Z,76.10
2019-06-26T09:47:25.118Z,77.00
2019-06-26T09:49:55.138Z,76.30
2019-06-26T09:52:25.158Z,77.00
2019-06-26T09:54:55.440Z,77.10
2019-06-26T09:57:25.464Z,74.90
2019-06-26T09:59:55.733Z,75.50
2019-06-26T10:02:25.914Z,74.10
2019-06-26T10:04:56.125Z,75.60
2019-06-26T10:07:26.284Z,74.10
2019-06-26T10:09:56.793Z,73.10
2019-06-26T10:12:26.976Z,72.30
2019-06-26T10:14:57.218Z,72.10
2019-06-26T10:17:27.388Z,70.80
2019-06-26T10:19:57.509Z,70.30
2019-06-26T10:22:27.614Z,70.80
2019-06-26T10:24:57.914Z,69.50
2019-06-26T10:27:28.058Z,69.00
2019-06-26T10:29:58.191Z,68.70
2019-06-26T10:32:28.378Z,69.00
2019-06-26T10:34:58.668Z,68.40
2019-06-26T10:37:28.902Z,68.40
2019-06-26T10:39:59.046Z,68.90
2019-06-26T10:42:29.353Z,67.30
2019-06-26T10:44:59.329Z,67.30
2019-06-26T10:47:29.499Z,64.20
2019-06-26T10:49:59.882Z,64.10
2019-06-26T10:52:29.924Z,65.20
2019-06-26T10:55:00.317Z,64.20
2019-06-26T10:57:30.690Z,64.20
2019-06-26T11:00:00.863Z,63.30
2019-06-26T11:02:31.020Z,63.50
2019-06-26T11:05:01.319Z,60.50
2019-06-26T11:07:31.446Z,61.20
2019-06-26T11:10:01.695Z,63.00
2019-06-26T11:12:32.015Z,62.50
2019-06-26T11:15:02.206Z,60.20
2019-06-26T11:17:32.449Z,60.90
2019-06-26T11:20:02.601Z,61.60
2019-06-26T11:22:32.898Z,60.00
2019-06-26T11:25:03.244Z,60.50
2019-06-26T11:27:33.650Z,59.80
2019-06-26T11:30:15.855Z,60.30
2019-06-26T11:32:46.181Z,59.90
2019-06-26T11:35:17.462Z,60.00
2019-06-26T11:37:47.737Z,60.40
2019-06-26T11:40:18.647Z,59.40
2019-06-26T11:42:50.170Z,59.10
2019-06-26T11:45:20.617Z,58.80
2019-06-26T11:47:50.826Z,56.60
2019-06-26T11:50:21.763Z,55.90
2019-06-26T11:52:52.150Z,57.30
2019-06-26T11:55:22.541Z,57.90
2019-06-26T11:57:52.840Z,56.00
2019-06-26T12:00:24.195Z,55.50
2019-06-26T12:02:54.324Z,56.00
2019-06-26T12:05:24.467Z,55.70
2019-06-26T12:07:54.794Z,55.10
2019-06-26T12:10:25.245Z,55.20
2019-06-26T12:12:55.476Z,55.20
2019-06-26T12:15:26.238Z,54.00
2019-06-26T12:17:56.312Z,54.00
2019-06-26T12:20:26.531Z,55.00
2019-06-26T12:22:56.870Z,54.80
2019-06-26T12:25:27.286Z,53.60
2019-06-26T12:27:57.300Z,54.20
2019-06-26T12:30:27.497Z,54.40
2019-06-26T12:33:03.336Z,54.60
2019-06-26T12:35:29.518Z,54.20
2019-06-26T12:37:59.664Z,54.10
2019-06-26T12:40:31.202Z,53.20
2019-06-26T12:43:01.788Z,53.50
2019-06-26T12:45:34.287Z,52.70
2019-06-26T12:48:05.839Z,53.60
2019-06-26T12:50:36.317Z,52.50
2019-06-26T12:53:06.785Z,51.90
2019-06-26T12:55:36.948Z,51.50
2019-06-26T12:58:14.046Z,52.30
2019-06-26T13:00:58.446Z,52.20
2019-06-26T13:03:28.702Z,52.70
2019-06-26T13:05:58.923Z,53.10
2019-06-26T13:08:29.172Z,53.00
2019-06-26T13:10:59.320Z,52.30
2019-06-26T13:13:29.389Z,52.60
2019-06-26T13:15:59.697Z,52.00
2019-06-26T13:18:29.882Z,52.10
2019-06-26T13:21:00.299Z,52.10
2019-06-26T13:23:30.466Z,52.00
2019-06-26T13:26:00.705Z,52.40
2019-06-26T13:28:30.982Z,53.80
2019-06-26T13:31:01.148Z,51.90
2019-06-26T13:33:31.376Z,51.00
2019-06-26T13:36:01.455Z,51.30
2019-06-26T13:38:31.504Z,51.30
2019-06-26T13:41:01.773Z,50.60
2019-06-26T13:43:31.985Z,51.50
2019-06-26T13:46:02.563Z,51.20
2019-06-26T13:48:32.844Z,52.00
2019-06-26T13:51:09.151Z,52.90
2019-06-26T13:53:35.163Z,53.70
2019-06-26T13:56:05.585Z,53.50
2019-06-26T13:58:35.875Z,52.50
2019-06-26T14:01:05.968Z,52.10
2019-06-26T14:03:36.097Z,52.40
2019-06-26T14:06:06.189Z,53.10
2019-06-26T14:08:36.552Z,53.50
2019-06-26T14:11:07.571Z,53.50
2019-06-26T14:13:41.534Z,53.50
2019-06-26T14:16:10.569Z,53.10
2019-06-26T14:18:41.986Z,53.20
2019-06-26T14:21:24.961Z,52.70
2019-06-26T14:23:43.956Z,53.20
2019-06-26T14:26:14.141Z,53.30
2019-06-26T14:28:44.467Z,52.70
2019-06-26T14:31:14.563Z,51.70
2019-06-26T14:33:44.768Z,51.20
2019-06-26T14:36:15.033Z,49.60
2019-06-26T14:38:45.305Z,50.60
2019-06-26T14:41:15.654Z,50.80
2019-06-26T14:43:45.829Z,51.60
2019-06-26T14:46:16.020Z,51.40
2019-06-26T14:48:46.335Z,50.90
2019-06-26T14:51:16.464Z,51.30
2019-06-26T14:53:46.783Z,51.50
2019-06-26T14:56:16.986Z,51.20
2019-06-26T14:58:47.262Z,51.10
2019-06-26T15:01:17.482Z,51.30
2019-06-26T15:03:47.763Z,51.90
2019-06-26T15:06:17.859Z,51.70
2019-06-26T15:08:47.958Z,51.50
2019-06-26T15:11:18.229Z,52.70
2019-06-26T15:13:48.219Z,52.40
2019-06-26T15:16:18.304Z,52.30
2019-06-26T15:18:49.461Z,52.20
2019-06-26T15:21:19.609Z,52.20
2019-06-26T15:23:49.631Z,52.60
2019-06-26T15:26:19.699Z,53.10
2019-06-26T15:28:49.650Z,53.10
2019-06-26T15:31:19.557Z,53.30
2019-06-26T15:33:49.626Z,53.00
2019-06-26T15:36:19.795Z,51.80
2019-06-26T15:38:50.122Z,52.10
2019-06-26T15:41:20.584Z,52.30
2019-06-26T15:43:50.526Z,52.30
2019-06-26T15:46:20.556Z,52.50
2019-06-26T15:48:50.787Z,52.20
2019-06-26T15:51:20.897Z,52.10
2019-06-26T15:53:50.990Z,52.30
2019-06-26T15:56:21.062Z,51.80
2019-06-26T15:58:51.251Z,52.00
2019-06-26T16:01:21.312Z,52.30
2019-06-26T16:03:51.493Z,52.10
2019-06-26T16:06:21.620Z,52.00
2019-06-26T16:08:51.843Z,52.20
2019-06-26T16:11:22.053Z,52.20
2019-06-26T16:13:52.182Z,52.20
2019-06-26T16:16:23.039Z,53.00
2019-06-26T16:18:59.790Z,52.40
2019-06-26T16:21:29.956Z,52.70
2019-06-26T16:24:00.087Z,52.70
2019-06-26T16:26:30.353Z,53.00
2019-06-26T16:29:00.380Z,53.40
2019-06-26T16:31:30.692Z,53.40
2019-06-26T16:34:00.731Z,54.10
2019-06-26T16:36:30.964Z,54.00
2019-06-26T16:39:01.157Z,54.40
2019-06-26T16:41:33.758Z,53.10
2019-06-26T16:44:04.013Z,53.60
2019-06-26T16:46:34.192Z,52.90
2019-06-26T16:49:04.528Z,53.70
2019-06-26T16:51:34.740Z,53.00
2019-06-26T16:54:05.080Z,53.50
2019-06-26T16:56:35.280Z,53.70
2019-06-26T16:59:05.451Z,52.70
2019-06-26T17:01:35.606Z,52.70
2019-06-26T17:04:06.005Z,52.00
2019-06-26T17:06:36.483Z,52.30
2019-06-26T17:09:08.822Z,52.50
2019-06-26T17:11:39.252Z,52.20
2019-06-26T17:14:09.586Z,52.20
2019-06-26T17:16:40.056Z,51.50
2019-06-26T17:19:10.591Z,51.60
2019-06-26T17:21:40.831Z,51.90
2019-06-26T17:24:11.082Z,51.70
2019-06-26T17:26:41.214Z,51.30
2019-06-26T17:29:11.444Z,51.30
2019-06-26T17:31:41.723Z,52.40
2019-06-26T17:34:12.187Z,52.30
2019-06-26T17:36:42.457Z,52.50
2019-06-26T17:39:12.704Z,52.40
2019-06-26T17:41:44.144Z,52.30
2019-06-26T17:44:14.470Z,52.40
2019-06-26T17:46:44.574Z,53.00
2019-06-26T17:49:15.020Z,53.10
2019-06-26T17:51:45.057Z,53.40
2019-06-26T17:54:15.288Z,53.20
2019-06-26T17:56:45.323Z,53.30
2019-06-26T17:59:15.528Z,53.80
2019-06-26T18:01:46.750Z,54.00
2019-06-26T18:04:16.950Z,54.10
2019-06-26T18:06:46.961Z,54.10
2019-06-26T18:09:17.021Z,54.60
2019-06-26T18:11:47.175Z,54.80
2019-06-26T18:14:17.358Z,55.10
2019-06-26T18:16:47.487Z,55.10
2019-06-26T18:19:17.701Z,55.20
2019-06-26T18:21:49.164Z,55.70
2019-06-26T18:24:19.197Z,55.90
2019-06-26T18:26:49.595Z,56.20
2019-06-26T18:29:19.841Z,56.70
2019-06-26T18:31:49.914Z,56.50
2019-06-26T18:34:20.295Z,57.10
2019-06-26T18:36:50.680Z,57.30
2019-06-26T18:39:21.001Z,57.60
2019-06-26T18:41:51.456Z,57.70
2019-06-26T18:44:21.731Z,60.10
2019-06-26T18:46:52.188Z,61.60
2019-06-26T18:49:22.551Z,62.60
2019-06-26T18:51:52.838Z,63.40
2019-06-26T18:54:23.124Z,64.10
2019-06-26T18:56:53.421Z,64.80
2019-06-26T18:59:23.565Z,64.60
2019-06-26T19:01:53.850Z,65.60
2019-06-26T19:04:25.835Z,66.10
2019-06-26T19:06:56.323Z,66.60
2019-06-26T19:09:31.427Z,67.10
2019-06-26T19:12:07.606Z,67.20
2019-06-26T19:14:37.650Z,67.60
2019-06-26T19:17:07.845Z,67.50
2019-06-26T19:19:42.123Z,68.50
2019-06-26T19:22:12.358Z,68.80
2019-06-26T19:24:43.205Z,69.10
2019-06-26T19:27:13.219Z,69.90
2019-06-26T19:29:43.686Z,70.20
2019-06-26T19:32:15.095Z,69.00
2019-06-26T19:34:45.268Z,69.60
2019-06-26T19:37:15.318Z,67.60
2019-06-26T19:39:46.595Z,67.20
2019-06-26T19:42:19.255Z,67.60
2019-06-26T19:44:52.061Z,67.00
2019-06-26T19:47:22.559Z,67.70
2019-06-26T19:49:54.424Z,66.80
2019-06-26T19:52:27.445Z,66.60
2019-06-26T19:55:07.338Z,67.10
2019-06-26T19:57:53.472Z,67.00
2019-06-26T20:00:33.771Z,66.90
2019-06-26T20:03:07.402Z,66.80
2019-06-26T20:06:01.224Z,66.60
2019-06-26T20:09:08.681Z,66.40
2019-06-26T20:12:11.404Z,66.10
2019-06-26T20:14:48.640Z,66.30
2019-06-26T20:17:27.602Z,66.20
2019-06-26T20:19:58.737Z,66.20
2019-06-26T20:22:28.924Z,66.90
2019-06-26T20:24:59.223Z,66.30
2019-06-26T20:27:30.919Z,66.00
2019-06-26T20:30:01.409Z,66.20
2019-06-26T20:32:32.372Z,65.90
2019-06-26T20:35:04.678Z,65.80
2019-06-26T20:37:35.989Z,66.00
2019-06-26T20:40:27.274Z,65.70
2019-06-26T20:43:07.672Z,65.70
2019-06-26T20:45:37.897Z,65.90
2019-06-26T20:48:08.240Z,66.00
2019-06-26T20:50:38.409Z,66.00
2019-06-26T20:53:08.774Z,66.30
2019-06-26T20:55:39.194Z,66.40
2019-06-26T20:58:09.184Z,66.60
2019-06-26T21:00:41.503Z,67.00
2019-06-26T21:03:11.876Z,67.20
2019-06-26T21:05:42.095Z,67.50
2019-06-26T21:08:12.926Z,67.90
2019-06-26T21:10:43.584Z,68.00
2019-06-26T21:13:14.036Z,68.20
2019-06-26T21:15:44.341Z,68.40
2019-06-26T21:18:14.747Z,68.90
2019-06-26T21:20:46.380Z,69.10
2019-06-26T21:23:18.919Z,69.20
2019-06-26T21:25:48.486Z,69.40
2019-06-26T21:28:18.690Z,69.90
2019-06-26T21:30:48.865Z,69.90
2019-06-26T21:33:19.082Z,70.60
2019-06-26T21:35:49.684Z,70.60
2019-06-26T21:38:20.292Z,70.70
2019-06-26T21:40:50.453Z,70.80
2019-06-26T21:43:20.944Z,71.50
2019-06-26T21:45:51.665Z,71.80
2019-06-26T21:48:21.998Z,72.50
2019-06-26T21:50:52.274Z,71.70
2019-06-26T21:53:22.315Z,72.10
2019-06-26T21:55:54.312Z,72.30
2019-06-26T21:58:26.161Z,72.80
2019-06-26T22:00:58.161Z,72.60
2019-06-26T22:03:30.733Z,72.80
2019-06-26T22:06:03.081Z,73.20
2019-06-26T22:08:35.168Z,73.10
2019-06-26T22:11:07.159Z,73.80
2019-06-26T22:13:37.647Z,73.70
2019-06-26T22:16:07.846Z,74.00
2019-06-26T22:18:37.945Z,74.10
2019-06-26T22:21:08.393Z,74.30
2019-06-26T22:23:38.659Z,74.60
2019-06-26T22:26:08.844Z,74.90
2019-06-26T22:28:39.032Z,75.10
2019-06-26T22:31:10.204Z,76.20
2019-06-26T22:33:40.465Z,76.90
2019-06-26T22:36:10.657Z,77.00
2019-06-26T22:38:40.912Z,77.40
2019-06-26T22:41:11.053Z,77.90
2019-06-26T22:43:41.204Z,78.50
2019-06-26T22:46:11.385Z,79.00
2019-06-26T22:48:41.466Z,79.70
2019-06-26T22:51:11.610Z,79.90
2019-06-26T22:53:41.753Z,79.80
2019-06-26T22:56:11.964Z,80.10
2019-06-26T22:58:42.094Z,80.30
2019-06-26T23:01:12.282Z,80.80
2019-06-26T23:03:42.518Z,80.50
2019-06-26T23:06:12.660Z,81.30
2019-06-26T23:08:42.727Z,84.00
2019-06-26T23:11:13.900Z,84.60
2019-06-26T23:13:44.014Z,85.60
2019-06-26T23:16:14.247Z,85.60
2019-06-26T23:19:03.608Z,85.80
2019-06-26T23:21:33.861Z,86.50
2019-06-26T23:24:04.112Z,87.00
2019-06-26T23:26:34.090Z,88.00
2019-06-26T23:29:04.371Z,88.30
2019-06-26T23:31:34.429Z,88.40
2019-06-26T23:34:04.467Z,88.90
2019-06-26T23:36:34.685Z,88.80
2019-06-26T23:39:06.205Z,89.30
2019-06-26T23:41:36.411Z,90.40
2019-06-26T23:44:07.593Z,90.30
2019-06-26T23:46:37.741Z,90.00
2019-06-26T23:49:07.752Z,90.10
2019-06-26T23:51:37.694Z,90.30
2019-06-26T23:54:09.057Z,90.50
2019-06-26T23:56:40.701Z,90.30
2019-06-26T23:59:12.315Z,90.40
